Time;durP1;ratioP1;P1;durP2;ratioP2;P2;SDS_P1;SDS_P2;PMS_P1;PMS_P2;Temp;Humidity;BMP_temperature;BMP_pressure;BME280_temperature;BME280_humidity;BME280_pressure;Samples;Min_cycle;Max_cycle;Signal;HPM_P1;HPM_P2
2022/11/07 00:02:04;;;;;;;41.40;37.40;;;;;;;6.85;100.00;97892.38;103221;1312;23419;-82
2022/11/07 00:04:33;;;;;;;37.40;33.70;;;;;;;6.83;100.00;97898.02;103121;1309;22605;-81
2022/11/07 00:07:02;;;;;;;40.90;37.10;;;;;;;6.83;100.00;97901.45;103381;1303;25311;-81
2022/11/07 00:09:30;;;;;;;47.10;42.70;;;;;;;6.81;100.00;97897.59;103174;1307;22503;-81
2022/11/07 00:11:59;;;;;;;41.60;37.80;;;;;;;6.78;100.00;97893.86;103307;1311;22648;-81
2022/11/07 00:14:26;;;;;;;41.30;37.30;;;;;;;6.77;100.00;97894.49;103576;1288;23911;-81
2022/11/07 00:16:54;;;;;;;43.10;38.90;;;;;;;6.75;100.00;97890.27;103453;1309;22573;-81
2022/11/07 00:19:22;;;;;;;39.80;36.20;;;;;;;6.75;100.00;97885.73;103409;1309;26977;-82
2022/11/07 00:21:50;;;;;;;38.80;34.80;;;;;;;6.76;100.00;97887.42;103222;1295;22478;-82
2022/11/07 00:24:18;;;;;;;37.30;33.80;;;;;;;6.75;100.00;97890.76;103271;1297;22744;-82
2022/11/07 00:26:47;;;;;;;36.70;33.30;;;;;;;6.73;100.00;97889.42;103340;1309;22597;-83
2022/11/07 00:29:18;;;;;;;37.50;33.80;;;;;;;6.73;100.00;97890.23;103277;1312;25306;-82
2022/11/07 00:31:47;;;;;;;38.60;34.90;;;;;;;6.72;100.00;97888.09;103318;1310;22536;-79
2022/11/07 00:34:15;;;;;;;40.80;36.90;;;;;;;6.71;100.00;97890.35;103081;1313;22470;-82
2022/11/07 00:36:43;;;;;;;40.00;35.80;;;;;;;6.73;100.00;97886.44;103382;1310;22570;-82
2022/11/07 00:39:11;;;;;;;40.60;36.90;;;;;;;6.75;100.00;97882.89;103169;1306;22558;-82
2022/11/07 00:41:39;;;;;;;40.90;37.00;;;;;;;6.76;100.00;97878.38;103387;1288;25370;-83
2022/11/07 00:44:07;;;;;;;40.10;35.90;;;;;;;6.77;100.00;97875.70;103408;1304;22731;-83
2022/11/07 00:46:34;;;;;;;41.70;38.00;;;;;;;6.80;100.00;97878.05;103424;1309;22508;-82
2022/11/07 00:49:02;;;;;;;41.90;37.80;;;;;;;6.81;100.00;97880.72;103485;1309;22475;-83
2022/11/07 00:51:30;;;;;;;42.70;38.40;;;;;;;6.84;100.00;97883.50;103111;1309;22535;-82
2022/11/07 00:54:03;;;;;;;40.30;36.50;;;;;;;6.87;100.00;97881.98;104389;1297;22496;-83
2022/11/07 00:56:31;;;;;;;39.70;35.70;;;;;;;6.90;100.00;97880.30;105669;1309;22484;-84
2022/11/07 00:59:02;;;;;;;38.50;35.10;;;;;;;6.96;100.00;97882.63;105493;1309;22539;-83
2022/11/07 01:01:32;;;;;;;34.30;31.00;;;;;;;7.00;100.00;97880.69;103430;1294;22512;-83
2022/11/07 01:06:47;;;;;;;37.30;33.80;;;;;;;7.07;100.00;97875.94;103480;1309;25392;-83
2022/11/07 01:09:19;;;;;;;38.50;34.70;;;;;;;7.08;100.00;97872.55;103452;1307;22588;-84
2022/11/07 01:11:47;;;;;;;37.50;33.80;;;;;;;7.09;100.00;97868.15;103399;1303;22527;-83
2022/11/07 01:14:18;;;;;;;35.90;32.40;;;;;;;7.10;100.00;97874.05;103004;1310;25363;-83
2022/11/07 01:16:46;;;;;;;34.60;31.20;;;;;;;7.11;100.00;97868.79;103147;1308;22492;-82
2022/11/07 01:19:17;;;;;;;34.70;31.50;;;;;;;7.15;100.00;97867.38;103293;1297;22486;-83
2022/11/07 01:21:46;;;;;;;36.30;32.60;;;;;;;7.17;100.00;97861.84;103322;1297;22732;-83
2022/11/07 01:24:15;;;;;;;34.40;31.30;;;;;;;7.18;100.00;97860.23;103361;1310;25726;-83
2022/11/07 01:26:47;;;;;;;31.60;28.50;;;;;;;7.20;100.00;97856.23;103358;1287;22495;-83
2022/11/07 01:29:17;;;;;;;34.30;31.00;;;;;;;7.22;100.00;97853.61;103374;1309;22461;-84
2022/11/07 01:31:45;;;;;;;37.70;34.10;;;;;;;7.19;100.00;97850.14;103297;1297;22485;-83
2022/11/07 01:34:13;;;;;;;32.30;29.20;;;;;;;7.17;100.00;97848.22;103321;1309;22527;-82
2022/11/07 01:36:42;;;;;;;32.40;29.30;;;;;;;7.15;100.00;97842.36;103355;1288;25245;-83
2022/11/07 01:39:10;;;;;;;34.20;31.10;;;;;;;7.15;100.00;97847.77;103364;1310;22475;-84
2022/11/07 01:41:39;;;;;;;34.80;31.50;;;;;;;7.17;100.00;97846.30;103322;1309;22488;-85
2022/11/07 01:44:07;;;;;;;36.30;32.70;;;;;;;7.19;100.00;97840.11;103409;1310;24257;-85
2022/11/07 01:46:39;;;;;;;38.80;34.90;;;;;;;7.19;100.00;97841.84;103531;1309;23452;-83
2022/11/07 01:49:07;;;;;;;37.80;34.00;;;;;;;7.14;100.00;97831.90;103196;1309;25808;-85
2022/11/07 01:51:44;;;;;;;36.60;33.00;;;;;;;7.12;100.00;97835.56;103526;1303;22916;-83
2022/11/07 01:54:16;;;;;;;36.60;33.30;;;;;;;7.11;100.00;97834.86;104194;1309;22549;-84
2022/11/07 01:56:44;;;;;;;34.00;30.80;;;;;;;7.11;100.00;97830.48;103433;1281;25375;-84
2022/11/07 01:59:18;;;;;;;35.20;32.00;;;;;;;7.11;100.00;97836.15;103339;1310;22595;-86
2022/11/07 02:01:49;;;;;;;37.00;33.70;;;;;;;7.10;100.00;97837.98;103408;1305;22509;-82
2022/11/07 02:04:20;;;;;;;40.00;36.30;;;;;;;7.07;100.00;97836.60;103308;1310;22756;-84
2022/11/07 02:06:54;;;;;;;35.90;32.30;;;;;;;7.09;100.00;97833.53;103105;1306;22610;-83
2022/11/07 02:09:22;;;;;;;36.90;33.50;;;;;;;7.09;100.00;97832.69;103534;1297;25264;-84
2022/11/07 02:11:50;;;;;;;40.00;35.90;;;;;;;7.09;100.00;97831.61;103472;1309;22551;-84
2022/11/07 02:14:18;;;;;;;39.70;35.90;;;;;;;7.10;100.00;97831.34;103307;1309;24179;-84
2022/11/07 02:16:46;;;;;;;40.30;36.60;;;;;;;7.10;100.00;97829.30;103711;1309;24247;-84
2022/11/07 02:19:35;;;;;;;42.90;38.90;;;;;;;7.10;100.00;97825.33;104386;1306;22563;-83
2022/11/07 02:22:16;;;;;;;44.10;39.80;;;;;;;7.09;100.00;97825.88;103995;1309;25305;-85
2022/11/07 02:24:48;;;;;;;38.50;34.70;;;;;;;7.12;100.00;97826.34;104179;1310;24323;-82
2022/11/07 02:27:20;;;;;;;40.70;36.70;;;;;;;7.15;100.00;97825.31;104386;1304;22494;-83
2022/11/07 02:29:53;;;;;;;39.30;35.70;;;;;;;7.18;100.00;97822.81;103525;1313;22481;-83
2022/11/07 02:32:21;;;;;;;42.10;38.00;;;;;;;7.19;100.00;97815.46;103466;1309;22531;-84
2022/11/07 02:35:19;;;;;;;43.20;39.00;;;;;;;7.21;100.00;97810.30;103438;1295;25376;-84
2022/11/07 02:37:48;;;;;;;40.80;37.00;;;;;;;7.19;100.00;97807.31;103141;1309;22597;-83
2022/11/07 02:40:16;;;;;;;39.90;36.00;;;;;;;7.20;100.00;97805.71;103354;1309;24340;-84
2022/11/07 02:42:45;;;;;;;40.90;37.20;;;;;;;7.22;100.00;97801.78;103313;1288;25241;-85
2022/11/07 02:45:20;;;;;;;41.80;37.70;;;;;;;7.24;100.00;97797.05;103422;1288;25281;-84
2022/11/07 02:47:48;;;;;;;40.30;36.50;;;;;;;7.28;100.00;97790.37;103326;1288;25286;-83
2022/11/07 02:50:16;;;;;;;40.00;36.40;;;;;;;7.32;100.00;97784.77;103200;1309;22867;-82
2022/11/07 02:52:44;;;;;;;41.90;38.10;;;;;;;7.34;100.00;97777.14;103306;1309;23075;-82
2022/11/07 02:55:13;;;;;;;39.00;35.30;;;;;;;7.35;100.00;97783.50;103286;1309;24325;-82
2022/11/07 02:57:41;;;;;;;40.00;36.10;;;;;;;7.35;100.00;97780.72;103238;1309;25322;-82
2022/11/07 03:00:12;;;;;;;38.00;34.30;;;;;;;7.35;100.00;97777.94;103321;1291;23917;-83
2022/11/07 03:02:48;;;;;;;39.10;35.50;;;;;;;7.37;100.00;97772.56;103391;1303;24385;-83
2022/11/07 03:05:18;;;;;;;40.20;36.40;;;;;;;7.37;100.00;97768.59;103373;1288;25357;-83
2022/11/07 03:07:47;;;;;;;38.70;35.20;;;;;;;7.38;100.00;97768.42;103360;1310;23333;-83
2022/11/07 03:10:17;;;;;;;38.80;35.20;;;;;;;7.37;100.00;97774.44;103380;1287;25459;-83
2022/11/07 03:12:45;;;;;;;36.80;33.20;;;;;;;7.36;100.00;97773.64;103419;1286;22504;-81
2022/11/07 03:15:13;;;;;;;40.20;36.50;;;;;;;7.36;100.00;97778.15;103366;1309;22614;-82
2022/11/07 03:17:41;;;;;;;37.50;33.90;;;;;;;7.38;100.00;97776.73;103325;1297;24275;-81
2022/11/07 03:20:10;;;;;;;36.20;32.80;;;;;;;7.42;100.00;97775.79;103293;1305;22819;-81
2022/11/07 03:22:38;;;;;;;37.10;33.30;;;;;;;7.45;100.00;97778.16;103349;1310;24268;-81
2022/11/07 03:25:07;;;;;;;48.30;43.00;;;;;;;7.49;100.00;97782.83;103388;1309;22494;-82
2022/11/07 03:27:35;;;;;;;61.90;55.30;;;;;;;7.51;100.00;97782.84;103537;1309;22529;-82
2022/11/07 03:30:03;;;;;;;55.10;49.60;;;;;;;7.51;100.00;97783.44;103339;1295;23240;-82
2022/11/07 03:32:33;;;;;;;43.70;39.30;;;;;;;7.56;100.00;97781.90;103362;1309;22528;-83
2022/11/07 03:35:01;;;;;;;39.50;35.30;;;;;;;7.61;100.00;97785.49;103234;1309;22480;-82
2022/11/07 03:37:29;;;;;;;40.40;35.70;;;;;;;7.62;100.00;97787.79;103295;1305;22554;-82
2022/11/07 03:39:57;;;;;;;47.40;34.10;;;;;;;7.64;100.00;97788.79;103340;1305;22681;-82
2022/11/07 03:42:25;;;;;;;37.80;34.20;;;;;;;7.63;100.00;97787.39;103346;1309;24314;-82
2022/11/07 03:44:53;;;;;;;35.50;32.20;;;;;;;7.63;100.00;97784.18;103070;1310;22967;-81
2022/11/07 03:47:21;;;;;;;36.90;33.50;;;;;;;7.63;100.00;97784.30;103287;1297;22663;-82
2022/11/07 03:49:49;;;;;;;35.70;32.20;;;;;;;7.63;100.00;97786.65;103106;1310;22502;-81
2022/11/07 03:52:17;;;;;;;35.50;32.20;;;;;;;7.64;100.00;97789.65;103353;1310;25478;-82
2022/11/07 03:54:45;;;;;;;35.20;31.90;;;;;;;7.66;100.00;97787.48;103362;1304;22518;-81
2022/11/07 03:57:13;;;;;;;37.20;33.60;;;;;;;7.67;100.00;97786.40;103353;1309;22519;-81
2022/11/07 03:59:41;;;;;;;37.90;34.20;;;;;;;7.65;100.00;97787.66;103076;1310;22475;-82
2022/11/07 04:02:09;;;;;;;35.60;32.10;;;;;;;7.63;100.00;97783.27;103351;1303;23222;-82
2022/11/07 04:04:37;;;;;;;33.30;29.90;;;;;;;7.62;100.00;97780.93;103198;1310;25195;-81
2022/11/07 04:07:05;;;;;;;35.70;31.90;;;;;;;7.61;100.00;97776.53;103217;1310;24305;-83
2022/11/07 04:09:33;;;;;;;31.20;28.10;;;;;;;7.61;100.00;97777.16;103406;1309;22576;-82
2022/11/07 04:17:34;;;;;;;29.40;26.50;;;;;;;7.57;100.00;97777.01;103356;1309;22518;-83
2022/11/07 04:20:03;;;;;;;29.60;26.50;;;;;;;7.55;100.00;97775.14;103388;1309;22497;-83
2022/11/07 04:22:31;;;;;;;29.00;26.10;;;;;;;7.57;100.00;97773.48;103174;1310;22471;-83
2022/11/07 04:24:59;;;;;;;28.90;26.20;;;;;;;7.58;100.00;97773.02;103369;1305;22494;-83
2022/11/07 04:27:43;;;;;;;29.40;26.50;;;;;;;7.58;100.00;97773.92;103388;1309;24243;-83
2022/11/07 04:30:22;;;;;;;31.30;28.10;;;;;;;7.55;100.00;97768.98;103220;1312;22547;-83
2022/11/07 04:32:52;;;;;;;30.10;27.40;;;;;;;7.53;100.00;97770.39;103386;1298;23258;-83
2022/11/07 04:35:23;;;;;;;29.60;26.80;;;;;;;7.54;100.00;97767.01;103374;1312;23048;-83
2022/11/07 04:37:52;;;;;;;29.50;26.80;;;;;;;7.57;100.00;97775.55;103415;1297;25252;-82
2022/11/07 04:40:20;;;;;;;28.00;25.10;;;;;;;7.59;100.00;97768.73;103378;1309;22511;-82
2022/11/07 04:42:49;;;;;;;30.10;27.40;;;;;;;7.59;100.00;97767.88;103321;1306;22508;-84
2022/11/07 04:45:17;;;;;;;31.70;28.60;;;;;;;7.59;100.00;97765.18;103428;1309;24237;-83
2022/11/07 04:47:46;;;;;;;31.30;28.40;;;;;;;7.58;100.00;97766.67;103412;1309;24283;-83
2022/11/07 04:50:16;;;;;;;32.00;28.90;;;;;;;7.56;100.00;97771.80;103377;1310;22479;-81
2022/11/07 04:52:45;;;;;;;30.60;27.50;;;;;;;7.55;100.00;97770.05;103300;1309;23031;-82
2022/11/07 04:55:23;;;;;;;26.40;24.00;;;;;;;7.55;100.00;97774.49;103428;1309;22475;-81
2022/11/07 04:57:52;;;;;;;26.40;23.80;;;;;;;7.57;100.00;97770.63;103312;1308;24067;-82
2022/11/07 05:00:21;;;;;;;27.50;25.00;;;;;;;7.58;100.00;97776.23;103388;1309;22515;-82
2022/11/07 05:02:49;;;;;;;28.00;25.40;;;;;;;7.64;100.00;97778.08;103328;1310;22477;-82
2022/11/07 05:05:18;;;;;;;31.30;28.50;;;;;;;7.66;100.00;97773.05;103518;1298;22489;-81
2022/11/07 05:07:46;;;;;;;29.60;27.00;;;;;;;7.67;100.00;97769.30;103438;1309;24362;-81
2022/11/07 05:10:19;;;;;;;27.90;25.00;;;;;;;7.64;100.00;97771.63;103286;1289;22528;-82
2022/11/07 05:12:47;;;;;;;27.60;24.60;;;;;;;7.64;100.00;97772.70;103063;1307;22610;-80
2022/11/07 05:15:16;;;;;;;27.10;24.50;;;;;;;7.68;100.00;97774.92;103248;1312;24241;-82
2022/11/07 05:17:44;;;;;;;27.30;24.80;;;;;;;7.68;100.00;97769.23;103372;1304;25507;-81
2022/11/07 05:20:32;;;;;;;27.80;24.20;;;;;;;7.68;100.00;97775.08;103373;1310;22527;-82
2022/11/07 05:23:13;;;;;;;28.30;25.70;;;;;;;7.65;100.00;97776.61;103366;1309;22615;-80
2022/11/07 05:25:51;;;;;;;28.90;25.80;;;;;;;7.60;100.00;97783.35;103380;1309;22509;-81
2022/11/07 05:28:24;;;;;;;30.80;27.70;;;;;;;7.59;100.00;97790.55;103371;1309;24198;-81
2022/11/07 05:31:05;;;;;;;31.70;28.40;;;;;;;7.60;100.00;97791.02;103270;1309;22998;-80
2022/11/07 05:33:34;;;;;;;111.80;68.60;;;;;;;7.63;100.00;97795.88;103290;1291;22503;-81
2022/11/07 05:36:12;;;;;;;68.60;56.40;;;;;;;7.65;100.00;97798.34;103432;1294;24047;-80
2022/11/07 05:38:43;;;;;;;63.00;54.80;;;;;;;7.67;100.00;97802.11;103368;1310;22505;-80
2022/11/07 05:41:12;;;;;;;56.60;50.60;;;;;;;7.67;100.00;97802.01;103360;1309;24237;-82
2022/11/07 05:43:40;;;;;;;52.80;45.90;;;;;;;7.67;100.00;97802.91;103322;1298;22491;-80
2022/11/07 05:46:08;;;;;;;41.10;36.70;;;;;;;7.68;100.00;97805.91;103231;1310;22489;-81
2022/11/07 05:48:37;;;;;;;39.20;35.20;;;;;;;7.69;100.00;97811.70;103399;1309;24289;-83
2022/11/07 05:51:06;;;;;;;34.80;31.50;;;;;;;7.70;100.00;97816.79;103403;1309;22489;-82
2022/11/07 05:53:34;;;;;;;35.80;32.00;;;;;;;7.70;100.00;97820.48;103478;1312;24373;-83
2022/11/07 05:56:03;;;;;;;36.20;33.00;;;;;;;7.69;100.00;97821.41;103706;1309;22503;-82
2022/11/07 05:58:31;;;;;;;37.50;33.80;;;;;;;7.67;100.00;97821.70;105135;1297;22607;-81
2022/11/07 06:01:05;;;;;;;36.90;33.50;;;;;;;7.64;100.00;97820.55;105034;1310;22427;-83
2022/11/07 06:03:33;;;;;;;35.50;31.70;;;;;;;7.63;100.00;97818.31;104484;1297;23126;-83
2022/11/07 06:06:01;;;;;;;34.40;31.20;;;;;;;7.64;100.00;97823.17;103359;1302;25417;-84
2022/11/07 06:08:29;;;;;;;34.90;31.40;;;;;;;7.66;100.00;97828.83;103197;1313;22529;-83
2022/11/07 06:10:57;;;;;;;32.70;29.50;;;;;;;7.69;100.00;97829.93;103376;1304;23222;-81
2022/11/07 06:13:25;;;;;;;32.30;28.90;;;;;;;7.70;100.00;97834.16;103141;1309;22493;-83
2022/11/07 06:15:53;;;;;;;35.00;31.60;;;;;;;7.72;100.00;97842.52;103269;1303;23209;-84
2022/11/07 06:18:21;;;;;;;33.20;30.20;;;;;;;7.69;100.00;97845.71;103050;1300;25342;-83
2022/11/07 06:20:48;;;;;;;35.40;32.10;;;;;;;7.70;100.00;97851.11;103284;1310;25417;-80
2022/11/07 06:23:17;;;;;;;34.10;30.90;;;;;;;7.73;100.00;97846.16;103354;1303;24052;-81
2022/11/07 06:25:46;;;;;;;35.30;31.60;;;;;;;7.77;100.00;97851.71;103345;1309;22526;-83
2022/11/07 06:28:14;;;;;;;37.10;33.20;;;;;;;7.79;100.00;97859.26;103362;1309;22461;-81
2022/11/07 06:30:42;;;;;;;38.20;34.40;;;;;;;7.79;100.00;97860.66;103227;1309;22485;-82
2022/11/07 06:33:14;;;;;;;36.60;33.10;;;;;;;7.79;100.00;97861.68;103210;1307;22475;-82
2022/11/07 06:35:44;;;;;;;62.90;50.90;;;;;;;7.80;100.00;97860.16;103382;1303;23072;-80
2022/11/07 06:38:13;;;;;;;65.60;54.50;;;;;;;7.78;100.00;97854.21;103386;1309;22532;-84
2022/11/07 06:40:41;;;;;;;50.80;45.30;;;;;;;7.81;100.00;97854.63;103584;1309;24358;-83
2022/11/07 06:43:16;;;;;;;50.00;44.90;;;;;;;7.85;100.00;97856.31;103390;1309;25200;-82
2022/11/07 06:45:46;;;;;;;45.20;40.20;;;;;;;7.91;100.00;97856.63;103162;1309;22629;-82
2022/11/07 06:48:14;;;;;;;45.40;40.70;;;;;;;7.97;100.00;97855.39;103332;1307;22579;-83
2022/11/07 06:50:42;;;;;;;45.50;40.80;;;;;;;8.02;100.00;97863.77;103255;1312;25566;-83
2022/11/07 06:53:11;;;;;;;43.50;39.00;;;;;;;8.04;100.00;97863.98;103373;1300;22638;-83
2022/11/07 06:55:40;;;;;;;41.90;36.60;;;;;;;8.07;100.00;97867.22;103431;1286;22435;-81
2022/11/07 06:58:08;;;;;;;40.50;36.70;;;;;;;8.10;100.00;97869.33;103345;1297;22563;-81
2022/11/07 07:00:36;;;;;;;40.10;35.00;;;;;;;8.15;100.00;97872.29;103331;1291;26666;-82
2022/11/07 07:03:04;;;;;;;37.40;33.20;;;;;;;8.22;100.00;97870.67;103324;1309;23278;-82
2022/11/07 07:05:34;;;;;;;35.20;31.70;;;;;;;8.30;100.00;97867.10;103328;1298;22475;-82
2022/11/07 07:08:04;;;;;;;41.20;37.00;;;;;;;8.35;100.00;97873.12;103328;1309;25380;-83
2022/11/07 07:10:42;;;;;;;38.20;34.50;;;;;;;8.39;100.00;97871.70;103120;1301;22532;-81
2022/11/07 07:13:12;;;;;;;34.90;31.40;;;;;;;8.42;100.00;97872.69;103369;1312;22537;-82
2022/11/07 07:15:41;;;;;;;32.40;29.10;;;;;;;8.46;100.00;97867.33;103327;1310;25255;-82
2022/11/07 07:18:19;;;;;;;32.90;29.40;;;;;;;8.51;100.00;97871.14;103229;1309;22506;-82
2022/11/07 07:20:48;;;;;;;33.20;29.00;;;;;;;8.59;100.00;97867.52;103264;1309;24221;-82
2022/11/07 07:23:18;;;;;;;32.90;29.40;;;;;;;8.67;100.00;97865.48;103405;1310;22646;-83
2022/11/07 07:25:48;;;;;;;54.10;31.40;;;;;;;8.70;100.00;97866.41;103296;1312;22466;-80
2022/11/07 07:28:16;;;;;;;40.70;30.00;;;;;;;8.70;100.00;97863.57;103409;1309;23092;-83
2022/11/07 07:30:44;;;;;;;34.30;28.80;;;;;;;8.75;100.00;97868.08;103478;1309;22464;-81
2022/11/07 07:33:20;;;;;;;33.30;27.60;;;;;;;8.82;100.00;97872.61;103338;1310;26482;-83
2022/11/07 07:35:48;;;;;;;44.90;30.40;;;;;;;8.83;100.00;97879.15;103143;1310;22531;-80
2022/11/07 07:38:16;;;;;;;31.40;28.10;;;;;;;8.88;100.00;97879.36;103790;1309;22606;-83
2022/11/07 07:40:44;;;;;;;33.50;30.00;;;;;;;8.91;100.00;97886.89;103392;1310;22555;-82
2022/11/07 07:43:12;;;;;;;32.80;29.50;;;;;;;8.92;100.00;97882.44;103358;1309;24238;-81
2022/11/07 07:45:40;;;;;;;32.70;29.40;;;;;;;8.95;100.00;97882.66;103313;1303;24230;-81
2022/11/07 07:48:08;;;;;;;33.00;29.20;;;;;;;9.02;100.00;97882.24;103381;1309;24217;-82
2022/11/07 07:50:36;;;;;;;32.00;28.80;;;;;;;9.10;100.00;97881.60;103370;1309;22485;-81
2022/11/07 07:53:04;;;;;;;34.90;31.50;;;;;;;9.16;100.00;97888.08;103394;1309;22544;-81
2022/11/07 07:55:35;;;;;;;38.90;32.80;;;;;;;9.17;100.00;97883.61;103253;1309;22858;-81
2022/11/07 07:58:04;;;;;;;38.40;34.30;;;;;;;9.20;100.00;97887.05;103375;1294;26541;-82
2022/11/07 08:00:32;;;;;;;37.40;33.50;;;;;;;9.25;100.00;97889.09;104475;1301;25388;-82
2022/11/07 08:03:05;;;;;;;33.90;30.40;;;;;;;9.30;100.00;97892.85;104824;1288;22434;-82
2022/11/07 08:05:33;;;;;;;37.20;33.20;;;;;;;9.27;99.71;97894.65;103387;1310;22486;-81
2022/11/07 08:08:01;;;;;;;35.90;32.30;;;;;;;9.26;99.57;97897.73;103230;1309;22582;-81
2022/11/07 08:10:29;;;;;;;35.50;31.80;;;;;;;9.26;99.46;97898.06;103298;1310;22471;-81
2022/11/07 08:13:13;;;;;;;40.80;34.60;;;;;;;9.21;99.17;97888.28;103334;1295;22441;-81
2022/11/07 08:15:41;;;;;;;36.20;32.40;;;;;;;9.23;97.35;97889.72;103519;1310;22429;-82
2022/11/07 08:18:09;;;;;;;36.30;32.40;;;;;;;9.18;97.28;97890.65;103402;1302;22677;-82
2022/11/07 08:21:07;;;;;;;39.30;35.30;;;;;;;9.14;97.40;97892.58;103413;1310;24203;-82
2022/11/07 08:23:35;;;;;;;43.30;38.60;;;;;;;9.14;97.38;97887.15;103292;1305;22542;-82
2022/11/07 08:26:03;;;;;;;37.60;33.20;;;;;;;9.17;97.76;97893.67;103198;1307;22868;-81
2022/11/07 08:28:34;;;;;;;39.10;31.50;;;;;;;9.21;96.50;97895.00;103266;1310;24385;-81
2022/11/07 08:31:07;;;;;;;56.10;38.90;;;;;;;9.25;96.84;97894.09;103344;1300;25203;-81
2022/11/07 08:33:36;;;;;;;81.30;48.80;;;;;;;9.27;96.22;97892.02;103377;1305;22866;-81
2022/11/07 08:36:05;;;;;;;51.70;36.10;;;;;;;9.28;96.27;97894.16;103400;1309;22730;-81
2022/11/07 08:38:34;;;;;;;39.70;32.80;;;;;;;9.30;95.08;97903.44;103411;1309;25284;-81
2022/11/07 08:41:03;;;;;;;29.40;26.30;;;;;;;9.29;94.53;97908.56;103417;1309;22611;-81
2022/11/07 08:43:31;;;;;;;32.20;27.80;;;;;;;9.30;94.74;97910.77;103219;1312;22870;-81
2022/11/07 08:45:59;;;;;;;32.90;37.70;;;;;;;9.29;94.01;97912.74;103355;1294;25435;-80
2022/11/07 08:48:27;;;;;;;31.80;28.70;;;;;;;9.28;94.31;97911.16;103356;1303;25278;-81
2022/11/07 08:50:57;;;;;;;36.60;28.10;;;;;;;9.28;93.56;97922.50;103414;1310;22562;-81
2022/11/07 08:53:25;;;;;;;26.60;23.90;;;;;;;9.29;93.12;97932.29;103368;1304;22498;-81
2022/11/07 08:56:08;;;;;;;23.80;21.30;;;;;;;9.30;93.20;97932.52;103304;1312;25242;-83
2022/11/07 08:58:37;;;;;;;23.70;21.40;;;;;;;9.31;91.99;97935.73;103418;1306;22472;-83
2022/11/07 09:01:07;;;;;;;23.90;21.40;;;;;;;9.28;90.48;97939.99;103337;1301;24042;-83
2022/11/07 09:03:36;;;;;;;22.50;20.10;;;;;;;9.23;91.78;97936.92;103309;1306;24455;-82
2022/11/07 09:06:16;;;;;;;20.00;18.00;;;;;;;9.22;90.37;97939.95;103384;1310;22556;-84
2022/11/07 09:08:44;;;;;;;25.10;18.40;;;;;;;9.27;90.48;97945.48;103189;1313;22479;-83
2022/11/07 09:11:14;;;;;;;21.40;17.80;;;;;;;9.30;90.53;97945.81;103116;1310;25593;-85
2022/11/07 09:13:42;;;;;;;21.80;19.70;;;;;;;9.32;89.34;97948.42;103453;1314;22552;-85
2022/11/07 09:16:11;;;;;;;20.80;17.10;;;;;;;9.33;87.94;97952.39;103296;1313;22592;-85
2022/11/07 09:18:39;;;;;;;16.70;14.60;;;;;;;9.34;87.06;97946.36;103149;1309;22604;-83
2022/11/07 09:21:06;;;;;;;20.10;17.10;;;;;;;9.36;86.49;97949.40;103313;1312;22476;-84
2022/11/07 09:23:35;;;;;;;18.90;16.50;;;;;;;9.37;87.22;97952.73;103378;1297;25427;-84
2022/11/07 09:26:03;;;;;;;18.30;15.30;;;;;;;9.41;86.77;97952.50;103373;1310;22671;-85
2022/11/07 09:28:32;;;;;;;15.70;14.10;;;;;;;9.46;85.94;97957.39;103426;1310;25511;-84
2022/11/07 09:31:02;;;;;;;14.70;12.50;;;;;;;9.49;84.96;97955.30;103398;1300;22555;-83
2022/11/07 09:33:31;;;;;;;15.50;12.90;;;;;;;9.52;84.26;97957.24;103397;1313;25205;-84
2022/11/07 09:36:03;;;;;;;17.70;13.70;;;;;;;9.53;83.52;97958.21;103270;1313;22527;-84
2022/11/07 09:38:32;;;;;;;14.70;12.60;;;;;;;9.57;83.81;97954.44;103316;1312;22578;-86
2022/11/07 09:41:24;;;;;;;13.70;11.30;;;;;;;9.62;82.45;97953.94;103117;1314;22757;-84
2022/11/07 09:44:21;;;;;;;14.20;10.80;;;;;;;9.64;82.24;97959.77;103393;1311;22604;-84
2022/11/07 09:47:16;;;;;;;13.00;8.90;;;;;;;9.70;83.40;97960.40;103408;1316;22492;-83
2022/11/07 09:49:47;;;;;;;11.30;7.80;;;;;;;9.77;81.59;97959.10;103393;1309;22546;-82
2022/11/07 09:52:23;;;;;;;10.50;7.80;;;;;;;9.79;81.11;97962.35;103404;1309;22556;-82
2022/11/07 09:55:20;;;;;;;8.80;6.70;;;;;;;9.79;79.08;97961.98;103520;1314;24390;-83
2022/11/07 09:57:51;;;;;;;12.50;8.00;;;;;;;9.75;78.19;97960.59;103011;1313;22594;-83
2022/11/07 10:00:21;;;;;;;10.70;7.60;;;;;;;9.74;78.57;97962.96;103307;1310;22674;-84
2022/11/07 10:02:54;;;;;;;10.70;7.30;;;;;;;9.76;79.19;97960.31;103357;1310;22558;-83
2022/11/07 10:05:36;;;;;;;10.20;6.30;;;;;;;9.78;78.09;97964.46;103505;1309;25256;-83
2022/11/07 10:08:10;;;;;;;8.70;6.30;;;;;;;9.79;77.57;97959.66;103233;1304;25382;-84
2022/11/07 10:11:19;;;;;;;10.00;6.90;;;;;;;9.86;78.95;97958.55;103381;1301;22877;-85
2022/11/07 10:14:15;;;;;;;8.40;6.40;;;;;;;9.92;77.27;97958.76;103260;1316;24640;-82
2022/11/07 10:17:03;;;;;;;11.20;7.50;;;;;;;9.94;75.91;97960.14;103249;1310;24272;-85
2022/11/07 10:19:53;;;;;;;10.80;7.30;;;;;;;9.93;76.03;97957.40;103243;1309;22490;-83
2022/11/07 10:22:40;;;;;;;11.90;9.00;;;;;;;9.91;75.79;97958.36;103295;1309;25671;-82
2022/11/07 10:25:20;;;;;;;13.90;8.60;;;;;;;9.95;77.11;97955.17;103295;1295;24174;-83
2022/11/07 10:28:04;;;;;;;11.10;7.60;;;;;;;10.03;76.69;97956.08;103413;1310;22603;-82
2022/11/07 10:30:33;;;;;;;11.30;7.90;;;;;;;10.06;75.38;97963.88;103398;1311;24327;-83
2022/11/07 10:33:10;;;;;;;12.00;7.90;;;;;;;10.07;74.74;97968.14;103289;1310;22484;-82
2022/11/07 10:35:44;;;;;;;10.20;7.30;;;;;;;10.06;74.08;97968.36;103167;1312;22550;-80
2022/11/07 10:38:24;;;;;;;9.90;6.80;;;;;;;10.04;73.58;97968.23;103390;1292;25247;-83
2022/11/07 10:40:53;;;;;;;11.60;7.10;;;;;;;10.03;73.78;97970.61;103270;1310;22728;-81
2022/11/07 10:43:36;;;;;;;10.40;7.10;;;;;;;10.06;74.64;97972.61;103180;1310;22596;-82
2022/11/07 10:46:14;;;;;;;13.10;7.30;;;;;;;10.15;75.68;97974.45;103177;1310;22477;-82
2022/11/07 10:48:57;;;;;;;11.40;7.10;;;;;;;10.22;74.82;97974.77;103383;1310;24404;-82
2022/11/07 10:51:36;;;;;;;10.20;7.00;;;;;;;10.27;74.05;97975.09;103414;1297;23218;-84
2022/11/07 10:54:06;;;;;;;7.40;6.40;;;;;;;10.26;73.25;97978.92;103453;1310;22529;-82
2022/11/07 10:56:46;;;;;;;10.20;7.10;;;;;;;10.24;72.86;97978.63;103375;1294;25241;-82
2022/11/07 10:59:23;;;;;;;13.40;7.20;;;;;;;10.19;72.74;97976.38;103690;1309;24244;-84
2022/11/07 11:01:54;;;;;;;9.70;7.00;;;;;;;10.23;72.77;97975.61;103603;1309;22470;-88
2022/11/07 11:04:26;;;;;;;13.40;9.00;;;;;;;10.37;73.00;97978.44;103472;1300;24237;-86
2022/11/07 11:07:04;;;;;;;13.00;7.70;;;;;;;10.54;71.99;97974.06;103674;1310;25298;-85
2022/11/07 11:09:34;;;;;;;15.90;8.20;;;;;;;10.74;71.95;97973.27;106198;1310;22453;-87
2022/11/07 11:12:05;;;;;;;10.90;7.10;;;;;;;11.15;71.69;97969.04;106005;1287;23126;-86
2022/11/07 11:14:34;;;;;;;9.60;7.60;;;;;;;11.64;70.05;97971.52;105490;1293;24379;-84
2022/11/07 11:17:02;;;;;;;8.50;7.10;;;;;;;11.74;70.18;97970.77;103754;1310;26528;-84
2022/11/07 11:19:51;;;;;;;10.10;7.30;;;;;;;12.14;69.34;97965.81;103705;1309;22526;-83
2022/11/07 11:22:24;;;;;;;9.50;7.40;;;;;;;12.17;67.72;97965.80;103896;1310;24370;-87
2022/11/07 11:25:19;;;;;;;10.30;7.20;;;;;;;12.04;68.31;97963.30;103607;1301;25316;-84
2022/11/07 11:27:54;;;;;;;9.60;7.10;;;;;;;12.21;69.28;97963.23;103223;1310;368470;-85
2022/11/07 11:30:23;;;;;;;11.30;6.40;;;;;;;12.58;67.39;97977.90;103566;1303;22937;-83
2022/11/07 11:32:59;;;;;;;8.80;6.80;;;;;;;12.84;65.29;97971.14;103435;1310;22607;-86
2022/11/07 11:35:45;;;;;;;10.80;6.90;;;;;;;12.89;66.06;97971.04;103453;1310;25251;-87
2022/11/07 11:38:19;;;;;;;10.30;6.90;;;;;;;13.03;65.63;97975.11;103264;1310;22485;-83
2022/11/07 11:40:54;;;;;;;8.60;6.40;;;;;;;13.18;63.65;97984.86;103293;1309;22679;-83